createdAt,value
2023-05-18T00:00:59.456Z,95480.00
2023-05-18T00:01:59.469Z,95483.00
2023-05-18T00:02:59.650Z,95482.00
2023-05-18T00:03:59.655Z,95483.00
2023-05-18T00:04:59.603Z,95482.00
2023-05-18T00:05:59.662Z,95483.00
2023-05-18T00:06:59.699Z,95481.00
2023-05-18T00:07:59.759Z,95481.00
2023-05-18T00:08:59.791Z,95481.00
2023-05-18T00:09:59.845Z,95480.00
2023-05-18T00:10:59.862Z,95480.00
2023-05-18T00:11:59.912Z,95480.00
2023-05-18T00:12:59.972Z,95475.00
2023-05-18T00:14:00.030Z,95479.00
2023-05-18T00:15:00.062Z,95480.00
2023-05-18T00:16:00.219Z,95477.00
2023-05-18T00:17:00.146Z,95480.00
2023-05-18T00:18:00.219Z,95479.00
2023-05-18T00:19:00.297Z,95476.00
2023-05-18T00:20:00.289Z,95476.00
2023-05-18T00:21:00.296Z,95477.00
2023-05-18T00:22:00.391Z,95476.00
2023-05-18T00:23:00.392Z,95473.00
2023-05-18T00:24:00.424Z,95473.00
2023-05-18T00:25:00.485Z,95475.00
2023-05-18T00:26:00.513Z,95478.00
2023-05-18T00:27:00.543Z,95478.00
2023-05-18T00:28:00.605Z,95478.00
2023-05-18T00:29:00.628Z,95479.00
2023-05-18T00:30:00.710Z,95478.00
2023-05-18T00:31:00.764Z,95476.00
2023-05-18T00:32:00.820Z,95479.00
2023-05-18T00:33:00.849Z,95478.00
2023-05-18T00:34:00.849Z,95479.00
2023-05-18T00:35:00.945Z,95476.00
2023-05-18T00:36:00.952Z,95474.00
2023-05-18T00:37:00.989Z,95476.00
2023-05-18T00:38:01.058Z,95477.00
2023-05-18T00:39:01.124Z,95472.00
2023-05-18T00:40:01.155Z,95473.00
2023-05-18T00:41:01.163Z,95471.00
2023-05-18T00:42:01.205Z,95472.00
2023-05-18T00:43:01.317Z,95469.00
2023-05-18T00:44:01.309Z,95468.00
2023-05-18T00:45:01.341Z,95467.00
2023-05-18T00:46:01.466Z,95468.00
2023-05-18T00:47:01.430Z,95467.00
2023-05-18T00:48:01.478Z,95464.00
2023-05-18T00:49:01.518Z,95465.00
2023-05-18T00:50:01.605Z,95464.00
2023-05-18T00:51:01.610Z,95464.00
2023-05-18T00:52:01.669Z,95462.00
2023-05-18T00:53:01.691Z,95465.00
2023-05-18T00:54:01.742Z,95463.00
2023-05-18T00:55:01.801Z,95463.00
2023-05-18T00:56:01.822Z,95462.00
2023-05-18T00:57:01.905Z,95461.00
2023-05-18T00:58:01.908Z,95461.00
2023-05-18T00:59:01.948Z,95460.00
2023-05-18T01:00:02.027Z,95461.00
2023-05-18T01:01:02.073Z,95459.00
2023-05-18T01:02:02.122Z,95459.00
2023-05-18T01:03:02.358Z,95458.00
2023-05-18T01:04:02.210Z,95456.00
2023-05-18T01:05:02.232Z,95457.00
2023-05-18T01:06:02.249Z,95456.00
2023-05-18T01:07:02.315Z,95456.00
2023-05-18T01:08:02.368Z,95458.00
2023-05-18T01:09:02.392Z,95457.00
2023-05-18T01:10:02.441Z,95456.00
2023-05-18T01:11:02.492Z,95455.00
2023-05-18T01:12:02.533Z,95454.00
2023-05-18T01:13:02.584Z,95455.00
2023-05-18T01:14:02.616Z,95454.00
2023-05-18T01:15:02.680Z,95453.00
2023-05-18T01:16:02.702Z,95452.00
2023-05-18T01:17:02.861Z,95452.00
2023-05-18T01:18:02.840Z,95454.00
2023-05-18T01:19:02.861Z,95453.00
2023-05-18T01:20:02.926Z,95452.00
2023-05-18T01:21:03.608Z,95453.00
2023-05-18T01:22:02.968Z,95453.00
2023-05-18T01:23:03.056Z,95451.00
2023-05-18T01:24:03.100Z,95453.00
2023-05-18T01:25:03.112Z,95452.00
2023-05-18T01:26:03.168Z,95450.00
2023-05-18T01:27:03.215Z,95452.00
2023-05-18T01:28:03.247Z,95451.00
2023-05-18T01:29:03.275Z,95450.00
2023-05-18T01:30:03.357Z,95450.00
2023-05-18T01:31:03.411Z,95449.00
2023-05-18T01:32:03.436Z,95447.00
2023-05-18T01:33:03.505Z,95446.00
2023-05-18T01:34:03.506Z,95446.00
2023-05-18T01:35:03.577Z,95443.00
2023-05-18T01:36:03.605Z,95442.00
2023-05-18T01:37:03.657Z,95442.00
2023-05-18T01:38:03.706Z,95439.00
2023-05-18T01:39:03.772Z,95440.00
2023-05-18T01:40:03.835Z,95437.00
2023-05-18T01:41:03.844Z,95437.00
2023-05-18T01:42:03.906Z,95435.00
2023-05-18T01:43:03.941Z,95436.00
2023-05-18T01:44:03.977Z,95435.00
2023-05-18T01:45:04.030Z,95437.00
2023-05-18T01:46:04.071Z,95436.00
2023-05-18T01:47:04.124Z,95433.00
2023-05-18T01:48:04.239Z,95434.00
2023-05-18T01:49:04.216Z,95433.00
2023-05-18T01:50:04.280Z,95434.00
2023-05-18T01:51:04.307Z,95434.00
2023-05-18T01:52:04.342Z,95434.00
2023-05-18T01:53:04.409Z,95434.00
2023-05-18T01:54:04.445Z,95433.00
2023-05-18T01:55:04.470Z,95435.00
2023-05-18T01:56:04.523Z,95433.00
2023-05-18T01:57:04.566Z,95431.00
2023-05-18T01:58:04.587Z,95432.00
2023-05-18T01:59:04.671Z,95432.00
2023-05-18T02:00:04.713Z,95432.00
2023-05-18T02:01:04.750Z,95431.00
2023-05-18T02:02:04.825Z,95429.00
2023-05-18T02:03:04.866Z,95430.00
2023-05-18T02:04:04.966Z,95429.00
2023-05-18T02:05:04.934Z,95429.00
2023-05-18T02:06:04.974Z,95430.00
2023-05-18T02:07:05.041Z,95430.00
2023-05-18T02:08:05.097Z,95429.00
2023-05-18T02:09:05.133Z,95430.00
2023-05-18T02:10:05.171Z,95428.00
2023-05-18T02:11:05.202Z,95427.00
2023-05-18T02:12:05.269Z,95428.00
2023-05-18T02:13:05.309Z,95427.00
2023-05-18T02:14:05.389Z,95426.00
2023-05-18T02:15:05.416Z,95427.00
2023-05-18T02:16:05.518Z,95428.00
2023-05-18T02:17:05.508Z,95429.00
2023-05-18T02:18:05.578Z,95428.00
2023-05-18T02:19:05.690Z,95426.00
2023-05-18T02:20:05.632Z,95427.00
2023-05-18T02:21:05.682Z,95425.00
2023-05-18T02:22:05.736Z,95426.00
2023-05-18T02:23:05.771Z,95428.00
2023-05-18T02:24:05.844Z,95428.00
2023-05-18T02:25:05.910Z,95427.00
2023-05-18T02:26:05.936Z,95425.00
2023-05-18T02:27:05.987Z,95424.00
2023-05-18T02:28:06.021Z,95424.00
2023-05-18T02:29:06.105Z,95424.00
2023-05-18T02:30:06.132Z,95422.00
2023-05-18T02:31:06.209Z,95421.00
2023-05-18T02:32:06.279Z,95422.00
2023-05-18T02:33:06.397Z,95420.00
2023-05-18T02:34:06.319Z,95421.00
2023-05-18T02:35:06.376Z,95421.00
2023-05-18T02:36:06.395Z,95422.00
2023-05-18T02:37:06.470Z,95421.00
2023-05-18T02:38:06.532Z,95421.00
2023-05-18T02:39:06.626Z,95418.00
2023-05-18T02:40:06.624Z,95420.00
2023-05-18T02:41:06.638Z,95421.00
2023-05-18T02:42:06.708Z,95420.00
2023-05-18T02:43:06.779Z,95418.00
2023-05-18T02:44:06.815Z,95418.00
2023-05-18T02:45:06.870Z,95416.00
2023-05-18T02:46:06.992Z,95415.00
2023-05-18T02:47:06.996Z,95415.00
2023-05-18T02:48:07.072Z,95414.00
2023-05-18T02:49:07.100Z,95413.00
2023-05-18T02:50:07.113Z,95412.00
2023-05-18T02:51:07.159Z,95411.00
2023-05-18T02:52:07.216Z,95411.00
2023-05-18T02:53:07.272Z,95410.00
2023-05-18T02:54:07.351Z,95408.00
2023-05-18T02:55:07.378Z,95410.00
2023-05-18T02:56:07.421Z,95410.00
2023-05-18T02:57:07.477Z,95408.00
2023-05-18T02:58:07.523Z,95408.00
2023-05-18T02:59:08.805Z,95407.00
2023-05-18T03:00:07.662Z,95406.00
2023-05-18T03:01:07.742Z,95406.00
2023-05-18T03:02:07.797Z,95404.00
2023-05-18T03:03:07.792Z,95407.00
2023-05-18T03:04:07.823Z,95406.00
2023-05-18T03:05:07.880Z,95405.00
2023-05-18T03:06:07.901Z,95407.00
2023-05-18T03:07:07.947Z,95405.00
2023-05-18T03:08:07.986Z,95409.00
2023-05-18T03:09:08.015Z,95407.00
2023-05-18T03:10:08.129Z,95405.00
2023-05-18T03:11:08.174Z,95407.00
2023-05-18T03:12:08.186Z,95406.00
2023-05-18T03:13:10.190Z,95404.00
2023-05-18T03:14:08.312Z,95407.00
2023-05-18T03:15:08.374Z,95406.00
2023-05-18T03:16:08.389Z,95407.00
2023-05-18T03:17:08.578Z,95406.00
2023-05-18T03:18:08.542Z,95408.00
2023-05-18T03:19:08.636Z,95407.00
2023-05-18T03:20:08.649Z,95406.00
2023-05-18T03:21:08.637Z,95404.00
2023-05-18T03:22:08.699Z,95404.00
2023-05-18T03:23:08.753Z,95404.00
2023-05-18T03:24:08.813Z,95406.00
2023-05-18T03:25:08.890Z,95403.00
2023-05-18T03:26:08.921Z,95405.00
2023-05-18T03:27:08.956Z,95404.00
2023-05-18T03:28:09.025Z,95405.00
2023-05-18T03:29:09.069Z,95406.00
2023-05-18T03:30:09.146Z,95405.00
2023-05-18T03:31:09.219Z,95407.00
2023-05-18T03:32:09.229Z,95407.00
2023-05-18T03:33:09.317Z,95407.00
2023-05-18T03:34:09.303Z,95410.00
2023-05-18T03:35:09.366Z,95408.00
2023-05-18T03:36:09.451Z,95409.00
2023-05-18T03:37:09.466Z,95410.00
2023-05-18T03:38:09.543Z,95410.00
2023-05-18T03:39:09.601Z,95412.00
2023-05-18T03:40:09.655Z,95413.00
2023-05-18T03:41:09.701Z,95413.00
2023-05-18T03:42:09.727Z,95415.00
2023-05-18T03:43:09.774Z,95414.00
2023-05-18T03:44:09.864Z,95412.00
2023-05-18T03:45:09.914Z,95413.00
2023-05-18T03:46:09.998Z,95415.00
2023-05-18T03:47:09.997Z,95414.00
2023-05-18T03:48:10.173Z,95414.00
2023-05-18T03:49:10.096Z,95412.00
2023-05-18T03:50:10.176Z,95414.00
2023-05-18T03:51:10.240Z,95411.00
2023-05-18T03:52:10.271Z,95412.00
2023-05-18T03:53:10.333Z,95412.00
2023-05-18T03:54:10.412Z,95413.00
2023-05-18T03:55:10.457Z,95413.00
2023-05-18T03:56:10.532Z,95409.00
2023-05-18T03:57:10.562Z,95414.00
2023-05-18T03:58:10.613Z,95411.00
2023-05-18T03:59:10.686Z,95412.00
2023-05-18T04:00:10.729Z,95412.00
2023-05-18T04:01:10.790Z,95412.00
2023-05-18T04:02:10.901Z,95413.00
2023-05-18T04:03:10.947Z,95411.00
2023-05-18T04:04:10.986Z,95413.00
2023-05-18T04:05:11.003Z,95412.00
2023-05-18T04:06:11.045Z,95413.00
2023-05-18T04:07:11.443Z,95414.00
2023-05-18T04:08:11.174Z,95414.00
2023-05-18T04:09:11.190Z,95415.00
2023-05-18T04:10:11.276Z,95416.00
2023-05-18T04:11:11.299Z,95415.00
2023-05-18T04:12:11.382Z,95415.00
2023-05-18T04:13:11.462Z,95416.00
2023-05-18T04:14:11.481Z,95417.00
2023-05-18T04:15:11.563Z,95416.00
2023-05-18T04:16:11.660Z,95416.00
2023-05-18T04:17:11.686Z,95417.00
2023-05-18T04:18:11.789Z,95416.00
2023-05-18T04:19:11.798Z,95414.00
2023-05-18T04:20:11.807Z,95414.00
2023-05-18T04:21:11.913Z,95415.00
2023-05-18T04:22:11.965Z,95414.00
2023-05-18T04:23:12.017Z,95413.00
2023-05-18T04:24:12.080Z,95415.00
2023-05-18T04:25:12.111Z,95416.00
2023-05-18T04:26:12.152Z,95414.00
2023-05-18T04:27:12.283Z,95415.00
2023-05-18T04:28:12.277Z,95413.00
2023-05-18T04:29:12.358Z,95413.00
2023-05-18T04:30:12.381Z,95414.00
2023-05-18T04:31:12.435Z,95416.00
2023-05-18T04:32:12.510Z,95414.00
2023-05-18T04:33:12.623Z,95415.00
2023-05-18T04:34:12.595Z,95415.00
2023-05-18T04:35:12.778Z,95416.00
2023-05-18T04:36:12.718Z,95416.00
2023-05-18T04:37:12.754Z,95417.00
2023-05-18T04:38:12.787Z,95417.00
2023-05-18T04:39:12.836Z,95416.00
2023-05-18T04:40:12.912Z,95418.00
2023-05-18T04:41:12.951Z,95419.00
2023-05-18T04:42:13.015Z,95418.00
2023-05-18T04:43:13.090Z,95417.00
2023-05-18T04:44:13.134Z,95420.00
2023-05-18T04:45:13.170Z,95419.00
2023-05-18T04:46:13.298Z,95419.00
2023-05-18T04:47:13.293Z,95418.00
2023-05-18T04:48:13.436Z,95418.00
2023-05-18T04:49:13.417Z,95420.00
2023-05-18T04:50:13.452Z,95419.00
2023-05-18T04:51:13.561Z,95418.00
2023-05-18T04:52:13.557Z,95418.00
2023-05-18T04:53:13.627Z,95419.00
2023-05-18T04:54:13.639Z,95418.00
2023-05-18T04:55:13.717Z,95418.00
2023-05-18T04:56:13.762Z,95418.00
2023-05-18T04:57:13.857Z,95417.00
2023-05-18T04:58:13.898Z,95418.00
2023-05-18T04:59:13.947Z,95418.00
2023-05-18T05:00:14.015Z,95416.00
2023-05-18T05:01:14.131Z,95415.00
2023-05-18T05:02:14.159Z,95415.00
2023-05-18T05:03:14.300Z,95415.00
2023-05-18T05:04:14.213Z,95416.00
2023-05-18T05:05:14.310Z,95416.00
2023-05-18T05:06:14.337Z,95415.00
2023-05-18T05:07:14.434Z,95413.00
2023-05-18T05:08:14.477Z,95416.00
2023-05-18T05:09:14.526Z,95415.00
2023-05-18T05:10:14.564Z,95415.00
2023-05-18T05:11:14.637Z,95415.00
2023-05-18T05:12:14.689Z,95411.00
2023-05-18T05:13:14.733Z,95412.00
2023-05-18T05:14:14.795Z,95413.00
2023-05-18T05:15:14.848Z,95414.00
2023-05-18T05:16:14.922Z,95413.00
2023-05-18T05:17:14.922Z,95414.00
2023-05-18T05:18:15.053Z,95413.00
2023-05-18T05:19:15.082Z,95413.00
2023-05-18T05:20:15.119Z,95412.00
2023-05-18T05:21:15.206Z,95414.00
2023-05-18T05:22:15.242Z,95412.00
2023-05-18T05:23:15.288Z,95411.00
2023-05-18T05:24:15.318Z,95413.00
2023-05-18T05:25:15.425Z,95414.00
2023-05-18T05:26:15.428Z,95412.00
2023-05-18T05:27:15.434Z,95410.00
2023-05-18T05:28:15.516Z,95411.00
2023-05-18T05:29:15.564Z,95410.00
2023-05-18T05:30:15.603Z,95408.00
2023-05-18T05:31:15.728Z,95408.00
2023-05-18T05:32:15.714Z,95408.00
2023-05-18T05:33:15.805Z,95407.00
2023-05-18T05:34:15.826Z,95408.00
2023-05-18T05:35:15.861Z,95411.00
2023-05-18T05:36:15.879Z,95411.00
2023-05-18T05:37:15.963Z,95411.00
2023-05-18T05:38:15.979Z,95410.00
2023-05-18T05:39:16.060Z,95410.00
2023-05-18T05:40:16.090Z,95412.00
2023-05-18T05:41:16.162Z,95409.00
2023-05-18T05:42:16.214Z,95410.00
2023-05-18T05:43:16.250Z,95411.00
2023-05-18T05:44:16.303Z,95411.00
2023-05-18T05:45:16.368Z,95408.00
2023-05-18T05:46:16.421Z,95408.00
2023-05-18T05:47:16.533Z,95408.00
2023-05-18T05:48:16.527Z,95404.00
2023-05-18T05:49:16.547Z,95408.00
2023-05-18T05:50:16.591Z,95406.00
2023-05-18T05:51:16.640Z,95405.00
2023-05-18T05:52:16.700Z,95408.00
2023-05-18T05:53:16.728Z,95405.00
2023-05-18T05:54:16.758Z,95405.00
2023-05-18T05:55:16.867Z,95403.00
2023-05-18T05:56:16.868Z,95402.00
2023-05-18T05:57:17.021Z,95406.00
2023-05-18T05:58:16.987Z,95402.00
2023-05-18T05:59:16.999Z,95405.00
2023-05-18T06:00:17.047Z,95401.00
2023-05-18T06:01:17.105Z,95401.00
2023-05-18T06:02:17.148Z,95400.00
2023-05-18T06:03:17.284Z,95401.00
2023-05-18T06:04:17.337Z,95402.00
2023-05-18T06:05:17.339Z,95402.00
2023-05-18T06:06:17.345Z,95403.00
2023-05-18T06:07:17.419Z,95405.00
2023-05-18T06:08:17.470Z,95404.00
2023-05-18T06:09:17.502Z,95405.00
2023-05-18T06:10:17.558Z,95406.00
2023-05-18T06:11:17.616Z,95407.00
2023-05-18T06:12:17.669Z,95408.00
2023-05-18T06:13:17.693Z,95407.00
2023-05-18T06:14:17.736Z,95408.00
2023-05-18T06:15:17.791Z,95409.00
2023-05-18T06:16:17.869Z,95408.00
2023-05-18T06:17:17.856Z,95409.00
2023-05-18T06:18:17.940Z,95412.00
2023-05-18T06:19:18.083Z,95409.00
2023-05-18T06:20:18.022Z,95413.00
2023-05-18T06:21:18.015Z,95414.00
2023-05-18T06:22:18.075Z,95414.00
2023-05-18T06:23:18.115Z,95416.00
2023-05-18T06:24:18.177Z,95419.00
2023-05-18T06:25:18.223Z,95418.00
2023-05-18T06:26:18.231Z,95417.00
2023-05-18T06:27:18.280Z,95418.00
2023-05-18T06:28:18.332Z,95415.00
2023-05-18T06:29:18.349Z,95415.00
2023-05-18T06:30:18.408Z,95414.00
2023-05-18T06:31:18.441Z,95411.00
2023-05-18T06:32:18.605Z,95411.00
2023-05-18T06:33:18.626Z,95411.00
2023-05-18T06:34:18.553Z,95410.00
2023-05-18T06:35:18.607Z,95409.00
2023-05-18T06:36:18.620Z,95409.00
2023-05-18T06:37:18.652Z,95409.00
2023-05-18T06:38:18.716Z,95406.00
2023-05-18T06:39:18.740Z,95406.00
2023-05-18T06:40:18.805Z,95406.00
2023-05-18T06:41:18.805Z,95409.00
2023-05-18T06:42:18.854Z,95409.00
2023-05-18T06:43:18.877Z,95407.00
2023-05-18T06:44:18.952Z,95407.00
2023-05-18T06:45:18.986Z,95406.00
2023-05-18T06:46:19.044Z,95404.00
2023-05-18T06:47:19.020Z,95409.00
2023-05-18T06:48:19.041Z,95407.00
2023-05-18T06:49:19.067Z,95407.00
2023-05-18T06:50:19.122Z,95409.00
2023-05-18T06:51:19.149Z,95408.00
2023-05-18T06:52:19.161Z,95410.00
2023-05-18T06:53:19.237Z,95411.00
2023-05-18T06:54:19.241Z,95410.00
2023-05-18T06:55:19.290Z,95411.00
2023-05-18T06:56:19.333Z,95414.00
2023-05-18T06:57:19.361Z,95413.00
2023-05-18T06:58:19.423Z,95412.00
2023-05-18T06:59:19.428Z,95411.00
2023-05-18T07:00:19.479Z,95410.00
2023-05-18T07:01:19.516Z,95411.00
2023-05-18T07:02:19.528Z,95410.00
2023-05-18T07:03:19.752Z,95414.00
2023-05-18T07:04:19.578Z,95411.00
2023-05-18T07:05:19.640Z,95412.00
2023-05-18T07:06:19.643Z,95415.00
2023-05-18T07:07:19.682Z,95413.00
2023-05-18T07:08:19.772Z,95415.00
2023-05-18T07:09:19.747Z,95415.00
2023-05-18T07:10:19.786Z,95413.00
2023-05-18T07:11:19.816Z,95411.00
2023-05-18T07:12:19.827Z,95411.00
2023-05-18T07:13:19.887Z,95413.00
2023-05-18T07:14:19.908Z,95412.00
2023-05-18T07:15:20.022Z,95411.00
2023-05-18T07:16:20.039Z,95413.00
2023-05-18T07:17:20.010Z,95410.00
2023-05-18T07:18:20.013Z,95410.00
2023-05-18T07:19:20.245Z,95410.00
2023-05-18T07:20:20.100Z,95409.00
2023-05-18T07:21:20.131Z,95407.00
2023-05-18T07:22:20.126Z,95406.00
2023-05-18T07:23:20.159Z,95405.00
2023-05-18T07:24:20.197Z,95405.00
2023-05-18T07:25:20.249Z,95403.00
2023-05-18T07:26:20.228Z,95406.00
2023-05-18T07:27:20.285Z,95401.00
2023-05-18T07:28:20.303Z,95401.00
2023-05-18T07:29:20.340Z,95400.00
2023-05-18T07:30:20.361Z,95403.00
2023-05-18T07:31:20.402Z,95400.00
2023-05-18T07:32:20.398Z,95399.00
2023-05-18T07:33:20.450Z,95400.00
2023-05-18T07:34:20.430Z,95401.00
2023-05-18T07:35:20.469Z,95402.00
2023-05-18T07:36:20.469Z,95401.00
2023-05-18T07:37:20.522Z,95402.00
2023-05-18T07:38:20.510Z,95401.00
2023-05-18T07:39:20.539Z,95401.00
2023-05-18T07:40:20.577Z,95403.00
2023-05-18T07:41:20.589Z,95398.00
2023-05-18T07:42:20.633Z,95399.00
2023-05-18T07:43:20.660Z,95398.00
2023-05-18T07:44:20.693Z,95399.00
2023-05-18T07:45:20.685Z,95399.00
2023-05-18T07:46:20.715Z,95399.00
2023-05-18T07:47:20.728Z,95398.00
2023-05-18T07:48:20.777Z,95396.00
2023-05-18T07:49:20.776Z,95398.00
2023-05-18T07:50:20.782Z,95397.00
2023-05-18T07:51:20.808Z,95396.00
2023-05-18T07:52:20.836Z,95397.00
2023-05-18T07:53:20.842Z,95398.00
2023-05-18T07:54:20.879Z,95402.00
2023-05-18T07:55:20.906Z,95401.00
2023-05-18T07:56:20.947Z,95399.00
2023-05-18T07:57:20.930Z,95399.00
2023-05-18T07:58:20.970Z,95399.00
2023-05-18T07:59:20.938Z,95400.00
2023-05-18T08:00:20.981Z,95397.00
2023-05-18T08:01:20.978Z,95398.00
2023-05-18T08:02:21.036Z,95395.00
2023-05-18T08:03:21.049Z,95395.00
2023-05-18T08:04:21.087Z,95396.00
2023-05-18T08:05:21.028Z,95394.00
2023-05-18T08:06:21.018Z,95395.00
2023-05-18T08:07:21.069Z,95396.00
2023-05-18T08:08:21.050Z,95398.00
2023-05-18T08:09:21.059Z,95398.00
2023-05-18T08:10:21.083Z,95398.00
2023-05-18T08:11:21.071Z,95396.00
2023-05-18T08:12:21.225Z,95397.00
2023-05-18T08:13:21.109Z,95396.00
2023-05-18T08:14:21.094Z,95399.00
2023-05-18T08:15:21.121Z,95395.00
2023-05-18T08:16:21.153Z,95399.00
2023-05-18T08:17:21.148Z,95399.00
2023-05-18T08:18:21.147Z,95399.00
2023-05-18T08:19:21.218Z,95398.00
2023-05-18T08:20:21.159Z,95400.00
2023-05-18T08:21:21.143Z,95399.00
2023-05-18T08:22:21.177Z,95394.00
2023-05-18T08:23:21.132Z,95396.00
2023-05-18T08:24:21.163Z,95398.00
2023-05-18T08:25:21.166Z,95395.00
2023-05-18T08:26:21.836Z,95395.00
2023-05-18T08:27:21.188Z,95398.00
2023-05-18T08:28:21.191Z,95399.00
2023-05-18T08:29:21.211Z,95399.00
2023-05-18T08:30:21.225Z,95400.00
2023-05-18T08:31:21.276Z,95397.00
2023-05-18T08:32:21.291Z,95400.00
2023-05-18T08:33:21.285Z,95400.00
2023-05-18T08:34:21.206Z,95402.00
2023-05-18T08:35:21.265Z,95401.00
2023-05-18T08:36:21.242Z,95400.00
2023-05-18T08:37:21.248Z,95402.00
2023-05-18T08:38:21.217Z,95402.00
2023-05-18T08:39:21.251Z,95403.00
2023-05-18T08:40:21.244Z,95401.00
2023-05-18T08:41:21.242Z,95402.00
2023-05-18T08:42:21.263Z,95400.00
2023-05-18T08:43:21.262Z,95401.00
2023-05-18T08:44:21.272Z,95401.00
2023-05-18T08:45:21.275Z,95399.00
2023-05-18T08:46:21.242Z,95400.00
2023-05-18T08:47:21.276Z,95400.00
2023-05-18T08:48:21.289Z,95399.00
2023-05-18T08:49:21.228Z,95400.00
2023-05-18T08:50:24.126Z,95399.00
2023-05-18T08:51:21.233Z,95400.00
2023-05-18T08:52:21.245Z,95399.00
2023-05-18T08:53:21.209Z,95399.00
2023-05-18T08:54:21.235Z,95398.00
2023-05-18T08:55:21.205Z,95397.00
2023-05-18T08:56:21.196Z,95396.00
2023-05-18T08:57:21.208Z,95394.00
2023-05-18T08:58:21.201Z,95393.00
2023-05-18T08:59:21.179Z,95392.00
2023-05-18T09:00:22.924Z,95390.00
2023-05-18T09:01:21.196Z,95391.00
2023-05-18T09:02:21.174Z,95389.00
2023-05-18T09:03:21.146Z,95390.00
2023-05-18T09:04:21.150Z,95389.00
2023-05-18T09:05:21.218Z,95388.00
2023-05-18T09:06:22.937Z,95387.00
2023-05-18T09:07:21.112Z,95388.00
2023-05-18T09:08:21.123Z,95388.00
2023-05-18T09:09:21.095Z,95388.00
2023-05-18T09:10:21.079Z,95388.00
2023-05-18T09:11:21.097Z,95387.00
2023-05-18T09:12:22.788Z,95383.00
2023-05-18T09:13:21.095Z,95386.00
2023-05-18T09:14:21.088Z,95385.00
2023-05-18T09:15:21.053Z,95389.00
2023-05-18T09:16:21.108Z,95390.00
2023-05-18T09:17:21.078Z,95388.00
2023-05-18T09:18:23.574Z,95389.00
2023-05-18T09:19:21.224Z,95390.00
2023-05-18T09:20:21.085Z,95391.00
2023-05-18T09:21:21.010Z,95388.00
2023-05-18T09:22:21.033Z,95390.00
2023-05-18T09:23:20.998Z,95392.00
2023-05-18T09:24:23.766Z,95393.00
2023-05-18T09:25:21.089Z,95393.00
2023-05-18T09:26:20.976Z,95393.00
2023-05-18T09:27:20.973Z,95392.00
2023-05-18T09:28:20.955Z,95390.00
2023-05-18T09:29:20.953Z,95390.00
2023-05-18T09:30:20.959Z,95389.00
2023-05-18T09:31:21.008Z,95387.00
2023-05-18T09:32:20.921Z,95387.00
2023-05-18T09:33:21.052Z,95387.00
2023-05-18T09:34:20.909Z,95386.00
2023-05-18T09:35:20.922Z,95381.00
2023-05-18T09:36:20.913Z,95387.00
2023-05-18T09:37:20.919Z,95385.00
2023-05-18T09:38:20.883Z,95384.00
2023-05-18T09:39:20.876Z,95382.00
2023-05-18T09:40:21.025Z,95380.00
2023-05-18T09:41:20.852Z,95380.00
2023-05-18T09:42:22.874Z,95379.00
2023-05-18T09:43:20.845Z,95379.00
2023-05-18T09:44:20.864Z,95378.00
2023-05-18T09:45:20.864Z,95378.00
2023-05-18T09:46:20.874Z,95378.00
2023-05-18T09:47:20.829Z,95376.00
2023-05-18T09:48:22.802Z,95378.00
2023-05-18T09:49:20.783Z,95378.00
2023-05-18T09:50:20.845Z,95375.00
2023-05-18T09:51:20.784Z,95374.00
2023-05-18T09:52:20.790Z,95374.00
2023-05-18T09:53:20.828Z,95372.00
2023-05-18T09:54:23.120Z,95370.00
2023-05-18T09:55:20.821Z,95373.00
2023-05-18T09:56:20.766Z,95372.00
2023-05-18T09:57:20.788Z,95370.00
2023-05-18T09:58:20.746Z,95371.00
2023-05-18T09:59:20.760Z,95371.00
2023-05-18T10:00:22.258Z,95372.00
2023-05-18T10:01:20.781Z,95371.00
2023-05-18T10:02:20.733Z,95369.00
2023-05-18T10:03:20.737Z,95369.00
2023-05-18T10:04:20.745Z,95371.00
2023-05-18T10:05:20.773Z,95368.00
2023-05-18T10:06:20.698Z,95369.00
2023-05-18T10:07:20.681Z,95367.00
2023-05-18T10:08:20.703Z,95368.00
2023-05-18T10:09:20.693Z,95367.00
2023-05-18T10:10:20.813Z,95366.00
2023-05-18T10:11:20.677Z,95366.00
2023-05-18T10:12:20.646Z,95367.00
2023-05-18T10:13:20.656Z,95370.00
2023-05-18T10:14:20.643Z,95369.00
2023-05-18T10:15:20.659Z,95370.00
2023-05-18T10:16:20.670Z,95368.00
2023-05-18T10:17:20.736Z,95368.00
2023-05-18T10:18:20.641Z,95366.00
2023-05-18T10:19:20.765Z,95365.00
2023-05-18T10:20:20.633Z,95366.00
2023-05-18T10:21:20.583Z,95366.00
2023-05-18T10:22:20.595Z,95363.00
2023-05-18T10:23:20.573Z,95361.00
2023-05-18T10:24:20.567Z,95362.00
2023-05-18T10:25:20.567Z,95362.00
2023-05-18T10:26:20.536Z,95363.00
2023-05-18T10:27:20.550Z,95361.00
2023-05-18T10:28:20.554Z,95358.00
2023-05-18T10:29:20.525Z,95356.00
2023-05-18T10:30:20.913Z,95359.00
2023-05-18T10:31:20.568Z,95358.00
2023-05-18T10:32:20.517Z,95363.00
2023-05-18T10:33:28.546Z,95358.00
2023-05-18T10:34:21.501Z,95360.00
2023-05-18T10:35:20.466Z,95360.00
2023-05-18T10:36:20.482Z,95356.00
2023-05-18T10:37:20.442Z,95357.00
2023-05-18T10:38:20.462Z,95358.00
2023-05-18T10:39:20.455Z,95357.00
2023-05-18T10:40:20.476Z,95357.00
2023-05-18T10:41:20.431Z,95357.00
2023-05-18T10:42:20.463Z,95357.00
2023-05-18T10:43:21.936Z,95355.00
2023-05-18T10:44:20.529Z,95357.00
2023-05-18T10:45:20.525Z,95360.00
2023-05-18T10:46:20.603Z,95358.00
2023-05-18T10:47:20.712Z,95356.00
2023-05-18T10:48:20.640Z,95360.00
2023-05-18T10:49:20.547Z,95357.00
2023-05-18T10:50:20.504Z,95358.00
2023-05-18T10:51:20.484Z,95357.00
2023-05-18T10:52:20.466Z,95355.00
2023-05-18T10:53:20.491Z,95359.00
2023-05-18T10:54:20.470Z,95359.00
2023-05-18T10:55:20.459Z,95356.00
2023-05-18T10:56:20.457Z,95356.00
2023-05-18T10:57:20.418Z,95358.00
2023-05-18T10:58:20.442Z,95355.00
2023-05-18T10:59:20.424Z,95359.00
2023-05-18T11:00:20.450Z,95355.00
2023-05-18T11:01:20.459Z,95365.00
2023-05-18T11:02:20.401Z,95362.00
2023-05-18T11:03:20.387Z,95363.00
2023-05-18T11:04:20.450Z,95364.00
2023-05-18T11:05:20.501Z,95361.00
2023-05-18T11:06:20.388Z,95360.00
2023-05-18T11:07:20.367Z,95361.00
2023-05-18T11:08:20.417Z,95360.00
2023-05-18T11:09:20.351Z,95361.00
2023-05-18T11:10:20.377Z,95358.00
2023-05-18T11:11:20.349Z,95357.00
2023-05-18T11:12:20.343Z,95355.00
2023-05-18T11:13:20.308Z,95354.00
2023-05-18T11:14:20.338Z,95355.00
2023-05-18T11:15:20.382Z,95353.00
2023-05-18T11:16:20.746Z,95353.00
2023-05-18T11:17:20.571Z,95352.00
2023-05-18T11:18:20.576Z,95355.00
2023-05-18T11:19:20.663Z,95356.00
2023-05-18T11:20:20.672Z,95355.00
2023-05-18T11:21:20.760Z,95356.00
2023-05-18T11:22:20.843Z,95355.00
2023-05-18T11:23:20.892Z,95356.00
2023-05-18T11:24:20.915Z,95352.00
2023-05-18T11:25:21.008Z,95357.00
2023-05-18T11:26:21.069Z,95356.00
2023-05-18T11:27:21.106Z,95353.00
2023-05-18T11:28:21.205Z,95355.00
2023-05-18T11:29:21.242Z,95356.00
2023-05-18T11:30:21.318Z,95356.00
2023-05-18T11:31:21.354Z,95357.00
2023-05-18T11:32:29.302Z,95358.00
2023-05-18T11:33:22.448Z,95359.00
2023-05-18T11:34:21.471Z,95358.00
2023-05-18T11:35:21.411Z,95361.00
2023-05-18T11:36:21.383Z,95360.00
2023-05-18T11:37:21.408Z,95365.00
2023-05-18T11:38:21.384Z,95361.00
2023-05-18T11:39:21.376Z,95361.00
2023-05-18T11:40:21.345Z,95359.00
2023-05-18T11:41:21.381Z,95357.00
2023-05-18T11:42:21.450Z,95357.00
2023-05-18T11:43:21.530Z,95355.00
2023-05-18T11:44:21.567Z,95354.00
2023-05-18T11:45:21.633Z,95352.00